createdAt,value
2022-10-25T00:15:02.869Z,94.2
2022-10-25T00:30:02.309Z,94.3
2022-10-25T00:45:02.760Z,94.5
2022-10-25T01:00:03.179Z,94.7
2022-10-25T01:15:02.675Z,95.1
2022-10-25T01:30:03.077Z,95.3
2022-10-25T01:45:02.698Z,95.5
2022-10-25T02:00:02.953Z,95.7
2022-10-25T02:15:02.380Z,95.8
2022-10-25T02:30:02.833Z,96.0
2022-10-25T02:45:02.256Z,96.1
2022-10-25T03:00:02.827Z,96.1
2022-10-25T03:15:02.112Z,96.2
2022-10-25T03:30:02.702Z,96.3
2022-10-25T03:45:02.978Z,96.4
2022-10-25T04:00:02.438Z,96.4
2022-10-25T04:15:02.846Z,96.4
2022-10-25T04:30:02.287Z,96.4
2022-10-25T04:45:02.715Z,96.4
2022-10-25T05:00:03.193Z,96.5
2022-10-25T05:15:02.733Z,96.4
2022-10-25T05:30:03.061Z,96.4
2022-10-25T05:45:02.652Z,96.5
2022-10-25T06:00:02.923Z,96.6
2022-10-25T06:15:02.383Z,96.6
2022-10-25T06:30:02.818Z,96.4
2022-10-25T06:45:03.252Z,96.2
2022-10-25T07:00:02.774Z,96.1
2022-10-25T07:15:03.149Z,96.0
2022-10-25T07:30:02.765Z,95.9
2022-10-25T07:45:03.011Z,95.7
2022-10-25T08:00:02.453Z,95.3
2022-10-25T08:15:02.907Z,94.8
2022-10-25T08:30:02.303Z,94.2
2022-10-25T08:45:02.777Z,93.1
2022-10-25T09:00:03.195Z,91.9
2022-10-25T09:15:02.793Z,91.7
2022-10-25T09:30:05.146Z,91.4
2022-10-25T09:45:03.540Z,90.7
2022-10-25T10:00:02.967Z,88.9
2022-10-25T10:15:02.598Z,87.0
2022-10-25T10:30:02.817Z,84.9
2022-10-25T10:45:03.272Z,82.0
2022-10-25T11:00:02.805Z,80.1
2022-10-25T11:15:03.146Z,75.3
2022-10-25T11:30:02.794Z,68.5
2022-10-25T11:45:03.020Z,66.3
2022-10-25T12:00:02.425Z,66.3
2022-10-25T12:15:02.883Z,62.5
2022-10-25T12:30:02.297Z,64.6
2022-10-25T12:45:02.830Z,64.8
2022-10-25T13:00:02.190Z,68.7
2022-10-25T13:15:02.816Z,67.2
2022-10-25T13:30:02.148Z,68.9
2022-10-25T13:45:02.463Z,71.5
2022-10-25T14:00:03.152Z,72.5
2022-10-25T14:15:02.371Z,71.7
2022-10-25T14:30:02.946Z,70.8
2022-10-25T14:45:02.244Z,71.2
2022-10-25T15:00:02.863Z,73.1
2022-10-25T15:15:02.118Z,74.4
2022-10-25T15:30:02.568Z,74.8
2022-10-25T15:45:03.004Z,75.6
2022-10-25T16:00:02.407Z,76.1
2022-10-25T16:15:02.874Z,76.2
2022-10-25T16:30:02.297Z,76.6
2022-10-25T16:45:02.862Z,77.5
2022-10-25T17:00:02.164Z,78.3
2022-10-25T17:15:02.607Z,79.6
2022-10-25T17:30:03.055Z,80.4
2022-10-25T17:45:02.466Z,81.4
2022-10-25T18:00:02.933Z,81.9
2022-10-25T18:15:02.376Z,82.2
2022-10-25T18:30:02.898Z,82.5
2022-10-25T18:45:02.230Z,83.0
2022-10-25T19:00:02.889Z,83.7
2022-10-25T19:15:02.119Z,84.7
2022-10-25T19:30:02.541Z,84.6
2022-10-25T19:45:03.018Z,85.4
2022-10-25T20:00:02.423Z,86.6
2022-10-25T20:15:02.972Z,87.8
2022-10-25T20:30:02.320Z,87.7
2022-10-25T21:00:02.208Z,87.8
2022-10-25T21:15:02.695Z,88.0
2022-10-25T21:30:03.090Z,88.7
2022-10-25T21:45:02.508Z,88.8
2022-10-25T22:00:02.968Z,88.7
2022-10-25T22:15:02.387Z,88.8
2022-10-25T22:30:02.947Z,89.4
2022-10-25T22:45:02.250Z,89.5
2022-10-25T23:00:02.872Z,89.6
2022-10-25T23:15:02.128Z,89.9
2022-10-25T23:30:02.575Z,90.6
2022-10-25T23:45:03.048Z,91.3
